ULLIUGSB

Guest
Details From ULLI - Saint Petersburg Pulkovo
To UGSB - Batumi
Flight Number -
Tags Generated
Created
Modified
Stats Distance 1,172 nm / 2,171 km
Max Altitude 0 ft / 0 m
Waypoints 7
Social Downloads 0
Likes 0
Share VATSIM

Download

Looking for another format? Having issues loading an existing format? Contact us
Advertisement - Login to hide

Notes

Generated

Route

ULLI MITMU NARIK LUSIG RF ORAMI UGSB

ID Type Via Altitude Latitude Longitude Leg Dist Tot Dist Heading (true) Name
O ULLI APT - 0 ft / 0 m 59.80973˚ 30.24537˚ - 0 nm - -
MITMU FIX - 0 ft / 0 m 56.01667˚ 33.43333˚ 249 nm 249 nm 155° / 157° -
NARIK FIX - 0 ft / 0 m 52.96667˚ 35.71667˚ 199 nm 449 nm 156° / 157° -
LUSIG FIX - 0 ft / 0 m 49.13652˚ 37.95169˚ 244 nm 694 nm 159° / 161° -
RF NDB - 0 ft / 0 m 45.28333˚ 39.91667˚ 244 nm 938 nm 160° / 162° -
ORAMI FIX - 0 ft / 0 m 41.76667˚ 41.40278˚ 220 nm 1159 nm 162° / 163° -
O UGSB APT - 0 ft / 0 m 41.61622˚ 41.59016˚ 12 nm 1172 nm 137° / 137° -

Altitude Profile

Advertisement - Login to hide

Weather


0- 5 10 15 20 25 30 35+ Temperature / ° C

Clouds and Precipitation
Forecast for 2018-05-25 06:00 UTC. Updated 22 minutes ago

Ground ~20,000 ft ~40,000 ft Winds

ULLI

Details ICAO ULLI (LED)
Name Saint Petersburg Pulkovo
Region Russia
Timezone Europe/Moscow (UTC+3.0)
Stats Elevation 78 ft / 24 m (AMSL)
Location 59.800292° 30.262504°
Runways 2
Magnetic Variation 10.762° E

METAR

ULLI 250530Z VRB01MPS CAVOK 15/04 Q1031 R88/090060 NOSIG

Decode

TAF

TAF ULLI 250159Z 2503/2603 34003MPS CAVOK TEMPO 2503/2506 VRB01MPS TEMPO 2506/2521 30003MPS TEMPO 2521/2603 24003MPS

Decode

Departure Runways

ID Width Length Bearing (true) Bearing (mag) Surface Threshold Offset Overrun Length
10L 197 ft / 60 m 11,115 ft / 3,388 m 106.38° 95.62° Concrete 0 ft / 0 m 235 ft / 72 m
10R 197 ft / 60 m 12,365 ft / 3,769 m 106.40° 95.64° Concrete 0 ft / 0 m 220 ft / 67 m
28L 197 ft / 60 m 12,365 ft / 3,769 m 286.46° 275.70° Concrete 0 ft / 0 m 260 ft / 79 m
28R 197 ft / 60 m 11,115 ft / 3,388 m 286.44° 275.68° Concrete 0 ft / 0 m 240 ft / 73 m

UGSB

Details ICAO UGSB (BUS)
Name BATUMI
Region Georgia
Timezone Asia/Tbilisi (UTC+4.0)
Stats Elevation 105 ft / 32 m (AMSL)
Location 41.609660° 41.600318°
Runways 1
Magnetic Variation 6.584° E

METAR

UGSB 250530Z VRB01KT 9999 FEW026 SCT130 23/17 Q1012 NOSIG

Decode

TAF

Not found

Destination Runways

ID Width Length Bearing (true) Bearing (mag) Surface Threshold Offset Overrun Length
13 150 ft / 46 m 7,321 ft / 2,232 m 130.81° 124.23° Asphalt 0 ft / 0 m 690 ft / 210 m
31 150 ft / 46 m 7,321 ft / 2,232 m 310.82° 304.24° Asphalt 0 ft / 0 m 0 ft / 0 m

Approach Navaids

Runway Type Ident Frequency Range Bearing (true) Bearing (mag) Slope Elevation
13 Localiser ILU 110.30 MHz 18 nm / 33 km 130.94° 124.36° - 121 ft / 37 m (AMSL)
13 Glidescope ILU 110.30 MHz 10 nm / 19 km 130.82° 124.23° 2.50° 127 ft / 39 m (AMSL)

Popular Alternatives